createdAt,value
2022-11-24T00:01:41.021Z,4.03
2022-11-24T00:07:47.418Z,3.83
2022-11-24T00:11:24.636Z,4.00
2022-11-24T00:15:01.803Z,3.53
2022-11-24T00:18:20.356Z,4.83
2022-11-24T00:27:53.513Z,4.33
2022-11-24T00:33:55.188Z,4.50
2022-11-24T00:36:40.130Z,5.03
2022-11-24T00:39:31.112Z,4.63
2022-11-24T00:42:20.644Z,4.10
2022-11-24T00:45:14.213Z,4.60
2022-11-24T00:48:26.168Z,4.83
2022-11-24T00:52:01.044Z,4.50
2022-11-24T00:55:23.343Z,4.57
2022-11-24T01:16:39.333Z,4.33
2022-11-24T01:19:56.985Z,3.60
2022-11-24T03:16:35.623Z,4.67
2022-11-24T03:19:07.047Z,5.27
2022-11-24T03:21:37.236Z,4.13
2022-11-24T03:24:05.651Z,4.50
2022-11-24T03:26:39.490Z,4.80
2022-11-24T05:18:27.986Z,4.57
2022-11-24T05:20:58.314Z,4.20
2022-11-24T06:09:20.884Z,4.07
2022-11-24T06:11:49.095Z,4.43
2022-11-24T06:14:40.623Z,4.87
2022-11-24T08:08:24.737Z,2.60
2022-11-24T08:11:46.286Z,2.77
2022-11-24T08:43:58.261Z,2.77
2022-11-24T08:55:45.238Z,2.13
2022-11-24T09:12:21.013Z,2.40
2022-11-24T09:57:40.706Z,2.90
2022-11-24T10:05:22.961Z,2.77
2022-11-24T10:37:59.083Z,2.60
2022-11-24T10:43:23.908Z,2.85
2022-11-24T10:45:51.904Z,2.38
2022-11-24T10:48:23.019Z,2.58
2022-11-24T10:50:54.243Z,2.95
2022-11-24T10:53:27.479Z,2.80
2022-11-24T10:56:05.102Z,2.65
2022-11-24T10:58:37.913Z,2.80
2022-11-24T11:01:24.003Z,3.35
2022-11-24T11:03:54.994Z,3.38
2022-11-24T11:06:26.995Z,3.00
2022-11-24T11:09:19.453Z,2.95
2022-11-24T11:11:52.275Z,2.92
2022-11-24T11:14:32.165Z,3.47
2022-11-24T11:17:02.769Z,2.90
2022-11-24T11:19:50.391Z,2.95
2022-11-24T11:22:28.013Z,2.50
2022-11-24T11:25:08.573Z,2.63
2022-11-24T11:27:36.821Z,2.80
2022-11-24T11:36:15.954Z,2.85
2022-11-24T11:38:45.959Z,3.53
2022-11-24T11:41:23.394Z,3.22
2022-11-24T11:44:06.126Z,2.67
2022-11-24T11:46:39.230Z,3.13
2022-11-24T11:49:10.812Z,2.75
2022-11-24T11:51:58.068Z,2.45
2022-11-24T11:54:46.668Z,3.00
2022-11-24T11:57:30.344Z,3.30
2022-11-24T12:00:27.067Z,2.63
2022-11-24T12:03:18.934Z,2.95
2022-11-24T12:06:00.522Z,3.42
2022-11-24T12:09:11.452Z,3.53
2022-11-24T12:11:35.877Z,3.88
2022-11-24T12:14:34.145Z,3.50
2022-11-24T12:17:17.208Z,3.20
2022-11-24T12:20:06.674Z,3.22
2022-11-24T12:22:43.137Z,4.07
2022-11-24T12:25:25.786Z,3.30
2022-11-24T12:28:06.099Z,3.33
2022-11-24T12:30:45.236Z,3.10
2022-11-24T12:36:30.444Z,3.47
2022-11-24T12:39:06.528Z,3.38
2022-11-24T12:41:53.253Z,3.40
2022-11-24T12:44:35.561Z,3.22
2022-11-24T12:47:15.322Z,3.35
2022-11-24T12:49:56.395Z,3.85
2022-11-24T12:52:29.754Z,3.55
2022-11-24T12:54:59.761Z,3.42
2022-11-24T12:57:35.108Z,2.80
2022-11-24T13:00:07.623Z,3.15
2022-11-24T13:02:52.674Z,3.13
2022-11-24T13:05:25.357Z,3.10
2022-11-24T13:07:59.246Z,3.35
2022-11-24T13:11:01.107Z,3.20
2022-11-24T13:13:24.557Z,3.33
2022-11-24T13:19:10.656Z,3.00
2022-11-24T13:26:26.280Z,3.50
2022-11-24T13:32:36.416Z,3.40
2022-11-24T13:35:47.883Z,4.13
2022-11-24T13:42:42.491Z,3.73
2022-11-24T13:45:01.961Z,3.27
2022-11-24T13:47:45.208Z,3.97
2022-11-24T13:50:49.876Z,2.90
2022-11-24T13:53:27.796Z,4.00
2022-11-24T13:55:59.648Z,3.30
2022-11-24T13:58:32.963Z,3.60
2022-11-24T14:01:13.583Z,3.67
2022-11-24T14:04:21.514Z,3.33
2022-11-24T14:06:44.136Z,3.53
2022-11-24T14:09:27.510Z,3.03
2022-11-24T14:12:01.292Z,3.30
2022-11-24T14:14:30.543Z,2.73
2022-11-24T14:17:14.060Z,2.90
2022-11-24T14:19:42.773Z,3.53
2022-11-24T14:22:19.699Z,2.70
2022-11-24T14:24:54.015Z,3.20
2022-11-24T14:27:31.987Z,3.30
2022-11-24T14:30:03.358Z,3.43
2022-11-24T14:32:32.738Z,2.77
2022-11-24T14:35:00.974Z,3.20
2022-11-24T14:37:29.633Z,3.63
2022-11-24T14:39:58.469Z,2.97
2022-11-24T14:42:28.940Z,3.10
2022-11-24T14:45:02.101Z,3.20
2022-11-24T14:47:46.299Z,3.20
2022-11-24T14:50:19.668Z,2.83
2022-11-24T14:52:56.102Z,3.23
2022-11-24T14:55:27.304Z,3.23
2022-11-24T14:58:03.479Z,3.60
2022-11-24T15:00:33.364Z,2.77
2022-11-24T15:03:26.862Z,3.73
2022-11-24T15:05:56.817Z,3.27
2022-11-24T15:08:26.280Z,3.00
2022-11-24T15:11:00.952Z,3.23
2022-11-24T15:13:30.272Z,3.53
2022-11-24T15:16:03.543Z,3.20
2022-11-24T15:18:42.186Z,3.47
2022-11-24T15:24:17.430Z,9.63
2022-11-24T15:26:46.787Z,8.10
2022-11-24T15:29:17.421Z,5.37
2022-11-24T15:32:19.314Z,8.90
2022-11-24T15:34:48.481Z,21.37
2022-11-24T15:37:18.928Z,6.53
2022-11-24T15:39:52.110Z,14.07
2022-11-24T15:42:20.115Z,10.37
2022-11-24T15:44:48.716Z,3.60
2022-11-24T15:47:26.841Z,6.80
2022-11-24T15:49:56.004Z,5.13
2022-11-24T15:52:23.989Z,4.77
2022-11-24T15:54:56.443Z,4.97
2022-11-24T15:57:27.873Z,3.60
2022-11-24T16:00:07.177Z,3.00
2022-11-24T16:09:58.348Z,5.27
2022-11-24T16:12:30.438Z,8.17
2022-11-24T16:15:00.322Z,6.30
2022-11-24T16:30:44.924Z,10.10
2022-11-24T16:36:02.920Z,17.60
2022-11-24T16:42:43.240Z,30.80
2022-11-24T16:45:37.538Z,15.40
2022-11-24T16:55:58.528Z,6.03
2022-11-24T16:58:26.580Z,6.43
2022-11-24T17:04:12.435Z,6.30
2022-11-24T17:06:40.875Z,5.80
2022-11-24T17:20:45.463Z,4.50
2022-11-24T17:37:30.148Z,3.70
2022-11-24T17:40:20.777Z,3.53
2022-11-24T17:42:46.257Z,3.20
2022-11-24T17:51:56.496Z,3.20
2022-11-24T18:04:27.706Z,3.47
2022-11-24T18:34:59.962Z,3.03
2022-11-24T18:39:33.525Z,2.97
2022-11-24T18:43:35.917Z,7.10
2022-11-24T19:23:05.146Z,11.33
2022-11-24T19:45:15.416Z,5.30
2022-11-24T19:48:55.830Z,23.43
2022-11-24T20:08:21.851Z,6.77
2022-11-24T20:10:57.161Z,5.13
2022-11-24T20:16:10.344Z,3.73
2022-11-24T20:18:48.839Z,4.83
2022-11-24T20:21:20.639Z,4.83
2022-11-24T20:23:57.119Z,10.87
2022-11-24T21:09:34.357Z,4.10
2022-11-24T21:13:12.193Z,3.40
2022-11-24T21:15:39.912Z,4.73
2022-11-24T21:18:08.985Z,3.90
2022-11-24T21:20:36.712Z,4.20
2022-11-24T21:23:05.009Z,4.50
2022-11-24T21:25:35.819Z,3.97
2022-11-24T21:29:42.507Z,4.00
2022-11-24T21:32:10.312Z,5.00
2022-11-24T21:34:40.164Z,4.53
2022-11-24T21:37:09.703Z,4.60
2022-11-24T21:39:37.453Z,4.40
2022-11-24T21:42:05.689Z,4.40
2022-11-24T21:44:33.601Z,4.77
2022-11-24T21:47:01.556Z,4.13
2022-11-24T21:49:29.686Z,4.40
2022-11-24T21:51:58.717Z,4.47
2022-11-24T21:54:26.542Z,3.80
2022-11-24T21:56:55.389Z,4.13
2022-11-24T21:59:23.228Z,3.67
2022-11-24T22:01:51.303Z,4.30
2022-11-24T22:04:19.113Z,4.80
2022-11-24T22:06:46.855Z,4.50
2022-11-24T22:09:18.191Z,4.83
2022-11-24T22:11:46.562Z,5.77
2022-11-24T22:14:14.301Z,4.20
2022-11-24T22:16:42.148Z,6.17
2022-11-24T22:19:10.190Z,5.40
2022-11-24T22:21:38.429Z,5.63
2022-11-24T22:24:06.975Z,4.63
2022-11-24T22:26:41.573Z,4.97
2022-11-24T22:29:19.391Z,5.53
2022-11-24T22:31:56.057Z,4.60
2022-11-24T22:34:26.874Z,5.10
2022-11-24T22:36:57.280Z,5.27
2022-11-24T22:39:30.186Z,7.90
2022-11-24T22:42:10.599Z,43.43
2022-11-24T22:44:38.555Z,36.97
2022-11-24T22:47:06.280Z,24.77
2022-11-24T22:49:34.522Z,20.53
2022-11-24T22:52:02.439Z,11.53
2022-11-24T22:54:30.227Z,9.50
2022-11-24T22:56:59.672Z,6.70
2022-11-24T22:59:27.414Z,6.93
2022-11-24T23:01:55.418Z,7.70
2022-11-24T23:04:23.250Z,7.93
2022-11-24T23:06:51.051Z,7.80
2022-11-24T23:09:18.781Z,6.13
2022-11-24T23:11:46.567Z,12.97
2022-11-24T23:14:16.679Z,7.10
2022-11-24T23:16:44.676Z,7.37
2022-11-24T23:19:12.484Z,4.90
2022-11-24T23:21:40.467Z,5.57
2022-11-24T23:24:09.371Z,5.10
2022-11-24T23:26:38.533Z,5.23
2022-11-24T23:29:07.391Z,5.30
2022-11-24T23:31:39.514Z,5.60
2022-11-24T23:34:07.728Z,4.93
2022-11-24T23:36:35.442Z,5.27
2022-11-24T23:39:04.185Z,4.90
2022-11-24T23:41:32.340Z,4.67
2022-11-24T23:44:00.182Z,5.70
2022-11-24T23:46:30.543Z,4.83
2022-11-24T23:49:05.783Z,6.50
2022-11-24T23:51:34.783Z,5.67
2022-11-24T23:54:10.505Z,6.37
2022-11-24T23:56:38.383Z,5.87
2022-11-24T23:59:06.329Z,5.90
